Time;durP1;ratioP1;P1;durP2;ratioP2;P2;SDS_P1;SDS_P2;PMS_P1;PMS_P2;Temp;Humidity;BMP_temperature;BMP_pressure;BME280_temperature;BME280_humidity;BME280_pressure;Samples;Min_cycle;Max_cycle;Signal;HPM_P1;HPM_P2
2022/07/23 00:02:10;;;;;;;6.05;5.18;;;;;;;;;;5003546;28;20038;-79
2022/07/23 00:04:36;;;;;;;11.27;5.50;;;;;;;;;;5004945;28;20042;-78
2022/07/23 00:07:02;;;;;;;7.03;4.93;;;;;;;;;;5008772;28;20421;-79
2022/07/23 00:09:31;;;;;;;9.38;5.00;;;;;;;;;;5008824;28;20052;-78
2022/07/23 00:11:57;;;;;;;6.50;4.45;;;;;;;;;;5005695;28;20096;-78
2022/07/23 00:14:23;;;;;;;9.07;4.90;;;;;;;;;;5013169;28;20073;-79
2022/07/23 00:16:49;;;;;;;6.93;4.38;;;;;;;;;;5011130;28;20078;-78
2022/07/23 00:19:15;;;;;;;5.65;4.63;;;;;;;;;;5006145;28;20069;-78
2022/07/23 00:21:41;;;;;;;7.15;4.82;;;;;;;;;;5004065;28;20041;-79
2022/07/23 00:24:07;;;;;;;7.40;4.63;;;;;;;;;;5004213;28;20493;-78
2022/07/23 00:26:33;;;;;;;6.57;4.40;;;;;;;;;;4992270;28;20405;-78
2022/07/23 00:28:59;;;;;;;5.88;4.82;;;;;;;;;;5011251;28;20436;-79
2022/07/23 00:31:25;;;;;;;10.00;5.28;;;;;;;;;;5009066;28;20433;-78
2022/07/23 00:33:52;;;;;;;7.05;4.80;;;;;;;;;;5011072;28;20038;-78
2022/07/23 00:36:18;;;;;;;6.50;4.80;;;;;;;;;;5012004;28;20103;-78
2022/07/23 00:38:44;;;;;;;7.18;5.13;;;;;;;;;;5010357;28;20049;-78
2022/07/23 00:41:10;;;;;;;8.27;5.20;;;;;;;;;;5012686;28;20037;-78
2022/07/23 00:43:36;;;;;;;7.20;4.47;;;;;;;;;;5011607;28;20046;-79
2022/07/23 00:46:02;;;;;;;6.95;4.75;;;;;;;;;;4995156;28;20452;-78
2022/07/23 00:48:28;;;;;;;7.25;4.68;;;;;;;;;;5012018;28;20405;-79
2022/07/23 00:50:54;;;;;;;5.63;4.70;;;;;;;;;;5009396;28;20481;-78
2022/07/23 00:53:20;;;;;;;7.70;4.80;;;;;;;;;;5012071;28;20042;-78
2022/07/23 00:55:48;;;;;;;7.47;4.60;;;;;;;;;;5011775;28;20050;-78
2022/07/23 00:58:14;;;;;;;6.72;4.68;;;;;;;;;;5013148;28;20085;-78
2022/07/23 01:00:40;;;;;;;7.50;4.82;;;;;;;;;;5011543;28;20153;-78
2022/07/23 01:03:06;;;;;;;7.82;5.00;;;;;;;;;;4997146;28;20096;-77
2022/07/23 01:05:33;;;;;;;9.50;4.82;;;;;;;;;;5012585;28;20058;-78
2022/07/23 01:07:59;;;;;;;7.38;4.85;;;;;;;;;;5012394;28;20049;-78
2022/07/23 01:10:31;;;;;;;8.40;4.57;;;;;;;;;;5000898;28;20066;-78
2022/07/23 01:12:58;;;;;;;8.55;4.97;;;;;;;;;;4979507;28;20490;-78
2022/07/23 01:15:24;;;;;;;7.25;4.95;;;;;;;;;;5011157;28;20042;-79
2022/07/23 01:17:50;;;;;;;7.80;5.20;;;;;;;;;;5016292;28;20050;-78
2022/07/23 01:20:16;;;;;;;7.07;4.65;;;;;;;;;;5015539;28;20404;-78
2022/07/23 01:22:43;;;;;;;9.05;4.95;;;;;;;;;;5015325;28;20092;-78
2022/07/23 01:25:09;;;;;;;7.57;5.18;;;;;;;;;;5015756;28;20049;-79
2022/07/23 01:27:35;;;;;;;9.95;5.30;;;;;;;;;;4996902;28;20042;-78
2022/07/23 01:30:01;;;;;;;8.90;5.22;;;;;;;;;;5012569;28;20045;-79
2022/07/23 01:32:27;;;;;;;6.05;4.38;;;;;;;;;;5013669;28;20052;-78
2022/07/23 01:34:53;;;;;;;6.75;4.68;;;;;;;;;;5016180;28;20066;-78
2022/07/23 01:37:19;;;;;;;9.80;5.20;;;;;;;;;;5014148;28;20052;-78
2022/07/23 01:39:45;;;;;;;7.20;5.20;;;;;;;;;;5009792;28;20485;-78
2022/07/23 01:42:11;;;;;;;5.93;4.70;;;;;;;;;;5008631;28;20042;-78
2022/07/23 01:44:37;;;;;;;6.93;4.93;;;;;;;;;;5008749;28;20054;-78
2022/07/23 01:47:03;;;;;;;7.38;5.40;;;;;;;;;;5006918;28;20088;-79
2022/07/23 01:49:29;;;;;;;8.15;4.88;;;;;;;;;;4989117;28;20180;-78
2022/07/23 01:52:01;;;;;;;6.50;4.80;;;;;;;;;;5006666;28;20050;-78
2022/07/23 01:54:27;;;;;;;7.05;5.03;;;;;;;;;;5006220;28;20140;-78
2022/07/23 01:56:53;;;;;;;7.28;5.07;;;;;;;;;;5007928;28;20050;-78
2022/07/23 01:59:19;;;;;;;8.13;5.30;;;;;;;;;;5007162;28;20456;-77
2022/07/23 02:01:46;;;;;;;7.85;5.30;;;;;;;;;;5006854;28;20053;-78
2022/07/23 02:04:12;;;;;;;6.13;5.18;;;;;;;;;;5007282;28;20046;-78
2022/07/23 02:06:38;;;;;;;9.27;5.35;;;;;;;;;;5006827;28;20045;-78
2022/07/23 02:09:04;;;;;;;7.10;5.13;;;;;;;;;;5007391;28;20381;-77
2022/07/23 02:11:30;;;;;;;8.85;5.28;;;;;;;;;;5007201;28;20473;-77
2022/07/23 02:13:56;;;;;;;8.70;5.32;;;;;;;;;;5015578;28;20049;-78
2022/07/23 02:16:22;;;;;;;8.18;5.10;;;;;;;;;;5013848;28;20092;-78
2022/07/23 02:18:48;;;;;;;6.20;4.82;;;;;;;;;;5012312;28;20471;-77
2022/07/23 02:21:14;;;;;;;5.45;4.75;;;;;;;;;;5013340;28;20476;-78
2022/07/23 02:23:40;;;;;;;6.05;4.40;;;;;;;;;;5014813;28;20092;-78
2022/07/23 02:26:06;;;;;;;7.97;4.90;;;;;;;;;;5011381;28;20041;-77
2022/07/23 02:28:32;;;;;;;6.35;4.65;;;;;;;;;;5013917;28;20044;-78
2022/07/23 02:30:58;;;;;;;5.88;4.78;;;;;;;;;;5011815;28;20112;-78
2022/07/23 02:33:24;;;;;;;7.55;4.63;;;;;;;;;;5014209;28;20048;-78
2022/07/23 02:35:50;;;;;;;6.53;4.70;;;;;;;;;;5013002;28;20129;-77
2022/07/23 02:38:16;;;;;;;7.00;5.20;;;;;;;;;;5012417;28;20046;-78
2022/07/23 02:40:42;;;;;;;7.70;5.20;;;;;;;;;;5012077;28;20045;-78
2022/07/23 02:43:08;;;;;;;6.93;4.55;;;;;;;;;;5015251;28;20046;-78
2022/07/23 02:45:34;;;;;;;6.38;4.70;;;;;;;;;;5011481;28;20417;-79
2022/07/23 02:48:00;;;;;;;6.63;4.85;;;;;;;;;;5013050;28;20045;-78
2022/07/23 02:50:26;;;;;;;6.80;4.97;;;;;;;;;;5012051;28;20045;-78
2022/07/23 02:52:52;;;;;;;7.60;4.90;;;;;;;;;;5011504;28;20045;-78
2022/07/23 02:55:18;;;;;;;6.18;5.10;;;;;;;;;;5013266;28;20038;-78
2022/07/23 02:57:44;;;;;;;8.02;5.15;;;;;;;;;;5013614;28;20041;-78
2022/07/23 03:00:10;;;;;;;8.15;5.03;;;;;;;;;;5011245;28;20050;-78
2022/07/23 03:02:36;;;;;;;9.50;5.65;;;;;;;;;;5012501;28;20404;-79
2022/07/23 03:05:02;;;;;;;9.55;5.32;;;;;;;;;;5013770;28;20042;-78
2022/07/23 03:07:28;;;;;;;8.27;5.78;;;;;;;;;;5012944;28;20042;-79
2022/07/23 03:09:54;;;;;;;8.15;5.00;;;;;;;;;;5014461;28;20082;-78
2022/07/23 03:12:20;;;;;;;8.13;5.22;;;;;;;;;;5013091;28;20081;-78
2022/07/23 03:14:46;;;;;;;10.00;5.47;;;;;;;;;;5014292;28;20074;-78
2022/07/23 03:17:12;;;;;;;7.28;5.40;;;;;;;;;;4993430;28;20054;-78
2022/07/23 03:19:38;;;;;;;6.60;5.20;;;;;;;;;;5010761;28;20049;-78
2022/07/23 03:22:05;;;;;;;7.32;4.85;;;;;;;;;;5013515;28;20046;-78
2022/07/23 03:27:16;;;;;;;7.03;5.43;;;;;;;;;;4994845;28;20046;-78
2022/07/23 03:29:42;;;;;;;5.55;4.95;;;;;;;;;;5011713;28;20041;-78
2022/07/23 03:32:08;;;;;;;6.35;5.20;;;;;;;;;;5010851;28;20054;-76
2022/07/23 03:34:34;;;;;;;5.72;5.03;;;;;;;;;;5013186;28;20052;-76
2022/07/23 03:37:00;;;;;;;7.68;5.15;;;;;;;;;;5010469;28;20065;-76
2022/07/23 03:39:26;;;;;;;7.32;4.95;;;;;;;;;;5013928;28;20128;-78
2022/07/23 03:41:52;;;;;;;6.25;4.93;;;;;;;;;;5011713;28;20124;-78
2022/07/23 03:44:18;;;;;;;8.15;5.60;;;;;;;;;;5013983;28;20497;-78
2022/07/23 03:46:44;;;;;;;10.05;5.63;;;;;;;;;;5011463;28;20111;-78
2022/07/23 03:49:10;;;;;;;7.57;5.50;;;;;;;;;;5006658;28;20050;-78
2022/07/23 03:51:36;;;;;;;7.43;5.15;;;;;;;;;;5004602;28;20183;-78
2022/07/23 03:54:02;;;;;;;7.63;5.15;;;;;;;;;;5005256;28;20034;-78
2022/07/23 03:56:28;;;;;;;8.68;5.32;;;;;;;;;;5007274;28;20486;-78
2022/07/23 03:58:54;;;;;;;6.95;5.28;;;;;;;;;;5013053;28;20034;-77
2022/07/23 04:01:20;;;;;;;6.43;5.10;;;;;;;;;;5013481;28;20042;-78
2022/07/23 04:03:46;;;;;;;8.30;5.25;;;;;;;;;;5013035;28;20092;-77
2022/07/23 04:06:13;;;;;;;7.65;5.00;;;;;;;;;;4984685;28;20104;-78
2022/07/23 04:08:39;;;;;;;6.68;4.82;;;;;;;;;;5012264;28;20041;-79
2022/07/23 04:11:05;;;;;;;5.93;4.97;;;;;;;;;;5012176;28;22007;-78
2022/07/23 04:13:32;;;;;;;7.25;5.32;;;;;;;;;;4995411;28;20393;-78
2022/07/23 04:15:58;;;;;;;7.25;4.80;;;;;;;;;;5013414;28;20046;-78
2022/07/23 04:18:24;;;;;;;6.35;5.20;;;;;;;;;;5010675;28;20042;-78
2022/07/23 04:20:53;;;;;;;6.78;5.05;;;;;;;;;;5012892;28;20535;-76
2022/07/23 04:23:20;;;;;;;8.40;4.93;;;;;;;;;;5012380;28;20038;-77
2022/07/23 04:25:46;;;;;;;11.63;5.20;;;;;;;;;;5013277;28;20057;-77
2022/07/23 04:28:12;;;;;;;6.32;4.82;;;;;;;;;;5010183;28;20045;-77
2022/07/23 04:30:38;;;;;;;6.30;4.97;;;;;;;;;;4977443;28;20630;-77
2022/07/23 04:33:06;;;;;;;6.80;4.90;;;;;;;;;;5008845;28;20049;-77
2022/07/23 04:35:33;;;;;;;6.68;4.85;;;;;;;;;;4993640;28;20050;-77
2022/07/23 04:37:59;;;;;;;5.93;4.50;;;;;;;;;;5006318;28;20137;-78
2022/07/23 04:40:25;;;;;;;5.43;4.43;;;;;;;;;;5012675;28;20494;-78
2022/07/23 04:42:51;;;;;;;6.50;4.15;;;;;;;;;;5009611;28;20519;-77
2022/07/23 04:45:17;;;;;;;8.02;4.68;;;;;;;;;;5012812;28;20049;-78
2022/07/23 04:47:43;;;;;;;4.50;4.00;;;;;;;;;;5010551;28;20120;-77
2022/07/23 04:50:09;;;;;;;6.53;4.00;;;;;;;;;;5012936;28;20038;-78
2022/07/23 04:52:35;;;;;;;7.38;4.00;;;;;;;;;;5010956;28;20038;-78
2022/07/23 04:55:01;;;;;;;5.57;3.70;;;;;;;;;;5012937;28;20077;-77
2022/07/23 04:57:28;;;;;;;4.93;3.53;;;;;;;;;;5009749;28;20050;-77
2022/07/23 04:59:54;;;;;;;4.97;3.50;;;;;;;;;;5011480;28;20052;-78
2022/07/23 05:02:20;;;;;;;4.50;3.95;;;;;;;;;;5012629;28;20038;-78
2022/07/23 05:04:46;;;;;;;5.35;3.72;;;;;;;;;;5011716;28;20107;-78
2022/07/23 05:07:12;;;;;;;5.35;3.67;;;;;;;;;;5011336;28;20041;-78
2022/07/23 05:09:38;;;;;;;4.32;3.90;;;;;;;;;;5010907;28;20042;-77
2022/07/23 05:12:04;;;;;;;7.30;4.00;;;;;;;;;;5012431;28;20044;-78
2022/07/23 05:14:30;;;;;;;5.65;3.75;;;;;;;;;;5011492;28;20424;-77
2022/07/23 05:16:56;;;;;;;6.30;3.78;;;;;;;;;;4994686;28;20407;-78
2022/07/23 05:19:22;;;;;;;6.30;3.83;;;;;;;;;;5011337;28;20116;-77
2022/07/23 05:21:48;;;;;;;5.03;3.78;;;;;;;;;;5012189;28;20177;-78
2022/07/23 05:24:14;;;;;;;4.20;3.80;;;;;;;;;;5009007;28;20046;-77
2022/07/23 05:26:40;;;;;;;6.15;3.30;;;;;;;;;;5010634;28;20050;-78
2022/07/23 05:29:06;;;;;;;5.75;3.85;;;;;;;;;;5010135;28;20482;-78
2022/07/23 05:31:32;;;;;;;5.30;3.35;;;;;;;;;;5009389;28;20100;-78
2022/07/23 05:33:58;;;;;;;6.82;3.53;;;;;;;;;;5009071;28;20046;-77
2022/07/23 05:36:24;;;;;;;4.93;3.08;;;;;;;;;;5011401;28;20045;-78
2022/07/23 05:38:50;;;;;;;4.07;2.80;;;;;;;;;;5010821;28;20493;-78
2022/07/23 05:41:16;;;;;;;4.35;3.10;;;;;;;;;;5012288;28;20509;-77
2022/07/23 05:43:43;;;;;;;4.60;2.97;;;;;;;;;;5011609;28;20049;-77
2022/07/23 05:46:09;;;;;;;5.28;2.88;;;;;;;;;;5011329;28;20062;-78
2022/07/23 05:48:35;;;;;;;4.60;2.80;;;;;;;;;;5011170;28;20412;-78
2022/07/23 05:51:03;;;;;;;6.40;3.03;;;;;;;;;;4994959;28;20058;-78
2022/07/23 05:53:29;;;;;;;4.10;2.70;;;;;;;;;;5011236;28;20046;-79
2022/07/23 05:55:55;;;;;;;6.93;2.58;;;;;;;;;;5015075;28;20049;-81
2022/07/23 05:58:21;;;;;;;4.22;2.38;;;;;;;;;;4998022;28;20128;-79
2022/07/23 06:00:47;;;;;;;3.45;2.30;;;;;;;;;;5015055;28;20049;-83
2022/07/23 06:03:13;;;;;;;3.05;2.13;;;;;;;;;;5011511;28;20038;-78
2022/07/23 06:05:39;;;;;;;3.97;2.30;;;;;;;;;;5014593;28;20042;-78
2022/07/23 06:08:05;;;;;;;2.63;1.90;;;;;;;;;;5014951;28;20046;-78
2022/07/23 06:10:31;;;;;;;3.88;1.80;;;;;;;;;;5014860;28;20050;-79
2022/07/23 06:12:57;;;;;;;2.70;1.90;;;;;;;;;;5014692;28;20127;-78
2022/07/23 06:15:24;;;;;;;6.43;1.90;;;;;;;;;;4995164;28;20057;-79
2022/07/23 06:17:50;;;;;;;2.60;1.60;;;;;;;;;;5011800;28;20046;-78
2022/07/23 06:20:16;;;;;;;2.10;1.55;;;;;;;;;;5012923;28;20053;-79
2022/07/23 06:22:42;;;;;;;3.53;1.60;;;;;;;;;;5014698;28;20081;-78
2022/07/23 06:25:08;;;;;;;2.45;1.50;;;;;;;;;;5013345;28;20379;-79
2022/07/23 06:27:34;;;;;;;3.63;1.67;;;;;;;;;;5012489;28;20089;-79
2022/07/23 06:30:00;;;;;;;4.60;1.75;;;;;;;;;;4997921;28;20149;-79
2022/07/23 06:32:26;;;;;;;2.45;1.70;;;;;;;;;;5015200;28;20538;-79
2022/07/23 06:34:52;;;;;;;4.30;1.70;;;;;;;;;;5009784;28;20049;-79
2022/07/23 06:37:18;;;;;;;4.72;1.60;;;;;;;;;;5014266;28;20052;-79
2022/07/23 06:39:44;;;;;;;1.60;1.40;;;;;;;;;;4999610;28;20042;-79
2022/07/23 06:42:11;;;;;;;1.40;1.30;;;;;;;;;;5012034;28;20069;-78
2022/07/23 06:44:37;;;;;;;2.53;1.60;;;;;;;;;;5014120;28;20049;-79
2022/07/23 06:47:03;;;;;;;3.10;1.45;;;;;;;;;;5011959;28;20049;-79
2022/07/23 06:49:29;;;;;;;2.80;1.60;;;;;;;;;;5013370;28;20060;-79
2022/07/23 06:51:55;;;;;;;3.95;1.60;;;;;;;;;;5013932;28;20089;-79
2022/07/23 06:54:21;;;;;;;1.58;1.38;;;;;;;;;;5013367;28;20038;-79
2022/07/23 06:56:48;;;;;;;2.78;1.60;;;;;;;;;;5014096;28;20041;-79
2022/07/23 06:59:14;;;;;;;2.33;1.50;;;;;;;;;;4994997;28;20107;-81
2022/07/23 07:01:40;;;;;;;2.63;1.50;;;;;;;;;;5014276;28;20493;-78
2022/07/23 07:04:07;;;;;;;1.52;1.30;;;;;;;;;;5009813;28;20049;-78
2022/07/23 07:06:33;;;;;;;2.05;1.30;;;;;;;;;;5012657;28;20172;-78
2022/07/23 07:08:59;;;;;;;2.38;1.45;;;;;;;;;;5013760;28;20057;-79
2022/07/23 07:11:25;;;;;;;1.95;1.38;;;;;;;;;;5013577;28;20125;-78
2022/07/23 07:13:51;;;;;;;3.85;1.58;;;;;;;;;;5006536;28;20068;-77
2022/07/23 07:16:17;;;;;;;2.88;1.70;;;;;;;;;;5009402;28;20045;-78
2022/07/23 07:18:44;;;;;;;1.98;1.40;;;;;;;;;;5010646;28;20432;-81
2022/07/23 07:21:10;;;;;;;2.42;1.60;;;;;;;;;;5012112;28;20038;-76
2022/07/23 07:23:36;;;;;;;3.65;1.58;;;;;;;;;;5012632;28;20110;-77
2022/07/23 07:26:02;;;;;;;3.47;1.63;;;;;;;;;;5013437;28;20108;-76
2022/07/23 07:28:28;;;;;;;2.88;1.63;;;;;;;;;;4995242;28;20054;-77
2022/07/23 07:30:54;;;;;;;2.83;1.30;;;;;;;;;;5014064;28;20045;-77
2022/07/23 07:33:21;;;;;;;2.72;1.40;;;;;;;;;;5012218;28;20600;-77
2022/07/23 07:35:47;;;;;;;4.90;1.27;;;;;;;;;;4979383;28;20053;-77
2022/07/23 07:38:13;;;;;;;1.95;1.45;;;;;;;;;;4995814;28;20523;-77
2022/07/23 07:40:39;;;;;;;2.35;1.55;;;;;;;;;;4994293;28;20049;-77
2022/07/23 07:43:05;;;;;;;2.50;1.52;;;;;;;;;;4995201;28;20088;-77
2022/07/23 07:45:31;;;;;;;2.65;1.42;;;;;;;;;;5013479;28;20065;-78
2022/07/23 07:47:57;;;;;;;3.05;1.60;;;;;;;;;;5013116;28;20051;-76
2022/07/23 07:50:24;;;;;;;2.25;1.63;;;;;;;;;;5013697;28;20050;-77
2022/07/23 07:52:50;;;;;;;3.00;1.70;;;;;;;;;;5012468;28;20691;-77
2022/07/23 07:55:16;;;;;;;2.65;1.60;;;;;;;;;;5009371;28;20045;-76
2022/07/23 07:57:42;;;;;;;3.08;1.67;;;;;;;;;;5013356;28;20042;-75
2022/07/23 08:00:10;;;;;;;2.05;1.67;;;;;;;;;;5011888;28;20176;-76
2022/07/23 08:02:46;;;;;;;2.40;1.73;;;;;;;;;;5013405;28;20054;-78
2022/07/23 08:05:12;;;;;;;;;;;;;;;;;;5012216;28;20065;-77
2022/07/23 08:07:39;;;;;;;3.42;1.70;;;;;;;;;;5012984;28;19921;-77
2022/07/23 08:10:05;;;;;;;4.07;1.65;;;;;;;;;;5009567;28;20045;-77
2022/07/23 08:12:38;;;;;;;2.97;1.58;;;;;;;;;;5008742;28;20044;-78
2022/07/23 08:15:04;;;;;;;2.47;1.70;;;;;;;;;;5007857;28;20177;-77
2022/07/23 08:17:31;;;;;;;3.42;1.80;;;;;;;;;;5006859;28;20069;-78
2022/07/23 08:19:57;;;;;;;2.92;1.70;;;;;;;;;;5011628;28;20042;-77
2022/07/23 08:22:23;;;;;;;4.65;1.58;;;;;;;;;;5011779;28;20129;-77
2022/07/23 08:24:49;;;;;;;3.70;1.75;;;;;;;;;;5011373;28;20539;-76
2022/07/23 08:27:15;;;;;;;3.63;1.70;;;;;;;;;;5004127;28;20836;-77
2022/07/23 08:29:41;;;;;;;2.60;1.50;;;;;;;;;;5009377;28;20135;-77
2022/07/23 08:32:07;;;;;;;2.33;1.50;;;;;;;;;;5005778;28;20136;-77
2022/07/23 08:34:33;;;;;;;3.70;1.70;;;;;;;;;;5008060;28;20037;-86
2022/07/23 08:36:59;;;;;;;3.47;1.70;;;;;;;;;;5007446;28;20045;-80
2022/07/23 08:39:25;;;;;;;3.50;1.70;;;;;;;;;;4988749;28;20050;-82
2022/07/23 08:41:51;;;;;;;3.58;1.77;;;;;;;;;;4990027;28;20046;-77
2022/07/23 08:44:17;;;;;;;1.73;1.60;;;;;;;;;;5007401;28;20532;-77
2022/07/23 08:46:44;;;;;;;3.17;1.90;;;;;;;;;;5006867;28;20053;-77
2022/07/23 08:49:10;;;;;;;3.63;1.70;;;;;;;;;;5006628;28;20159;-77
2022/07/23 08:51:37;;;;;;;3.88;1.80;;;;;;;;;;5006243;28;20057;-76
2022/07/23 08:54:03;;;;;;;5.40;1.90;;;;;;;;;;4988171;28;20413;-77
2022/07/23 08:56:29;;;;;;;2.33;1.70;;;;;;;;;;5007216;28;20124;-77
2022/07/23 08:58:55;;;;;;;3.83;1.75;;;;;;;;;;5007486;28;20053;-77
2022/07/23 09:01:22;;;;;;;3.03;1.77;;;;;;;;;;5005526;28;20221;-76
2022/07/23 09:03:48;;;;;;;3.13;1.70;;;;;;;;;;5007253;28;20042;-77
2022/07/23 09:06:14;;;;;;;4.10;1.80;;;;;;;;;;5005418;28;20045;-76
2022/07/23 09:08:41;;;;;;;4.03;1.60;;;;;;;;;;5007856;28;20072;-75
2022/07/23 09:11:11;;;;;;;3.40;1.70;;;;;;;;;;5007421;28;20074;-77
2022/07/23 09:13:47;;;;;;;3.78;1.95;;;;;;;;;;4989056;28;20088;-77
2022/07/23 09:16:13;;;;;;;2.10;1.77;;;;;;;;;;5006792;28;20045;-76
2022/07/23 09:18:59;;;;;;;4.13;1.90;;;;;;;;;;5011693;28;20042;-76
2022/07/23 09:21:28;;;;;;;;;;;;;;;;;;5012015;28;20042;-78
2022/07/23 09:23:56;;;;;;;2.65;1.63;;;;;;;;;;5012850;28;19928;-80
2022/07/23 09:26:29;;;;;;;3.22;1.60;;;;;;;;;;5012341;28;20096;-78
2022/07/23 09:28:55;;;;;;;2.78;1.73;;;;;;;;;;5012620;28;20382;-81
2022/07/23 09:31:23;;;;;;;4.35;1.80;;;;;;;;;;5014346;28;20153;-76
2022/07/23 09:33:49;;;;;;;2.33;1.60;;;;;;;;;;5016005;28;20050;-78
2022/07/23 09:36:15;;;;;;;2.50;1.70;;;;;;;;;;5015794;28;20057;-77
2022/07/23 09:38:50;;;;;;;2.38;1.70;;;;;;;;;;5015730;28;20497;-77
2022/07/23 09:41:17;;;;;;;3.20;1.60;;;;;;;;;;4996475;28;20050;-77
2022/07/23 09:43:43;;;;;;;4.75;1.83;;;;;;;;;;5009323;28;20042;-76
2022/07/23 09:46:19;;;;;;;1.73;1.63;;;;;;;;;;5014782;28;20251;-77
2022/07/23 09:48:45;;;;;;;3.17;1.75;;;;;;;;;;5016209;28;20503;-78
2022/07/23 09:51:12;;;;;;;3.55;1.63;;;;;;;;;;5016161;28;20512;-78
2022/07/23 09:53:38;;;;;;;2.65;1.70;;;;;;;;;;5009805;28;20088;-78
2022/07/23 09:56:05;;;;;;;3.75;1.80;;;;;;;;;;4978626;28;20046;-78
2022/07/23 09:58:31;;;;;;;2.33;1.67;;;;;;;;;;5002796;28;20124;-78
2022/07/23 10:00:58;;;;;;;3.50;1.67;;;;;;;;;;5007531;28;20069;-78
2022/07/23 10:03:24;;;;;;;5.88;1.80;;;;;;;;;;5016030;28;20042;-78
2022/07/23 10:05:50;;;;;;;3.25;1.80;;;;;;;;;;5014310;28;20088;-78
2022/07/23 10:08:18;;;;;;;3.88;2.03;;;;;;;;;;4995451;28;20073;-78
2022/07/23 10:10:46;;;;;;;2.10;1.50;;;;;;;;;;5015052;28;20144;-77
2022/07/23 10:14:12;;;;;;;2.53;1.77;;;;;;;;;;5014760;28;20124;-79
2022/07/23 10:16:08;;;;;;;2.53;1.50;;;;;;;;;;5005689;28;20140;-78
2022/07/23 10:18:34;;;;;;;2.28;1.60;;;;;;;;;;5013151;28;20577;-78
2022/07/23 10:21:06;;;;;;;2.22;1.70;;;;;;;;;;5015381;28;20132;-78
2022/07/23 10:23:35;;;;;;;2.08;1.67;;;;;;;;;;5013783;28;20046;-78
2022/07/23 10:26:15;;;;;;;2.92;1.60;;;;;;;;;;5011092;28;20053;-76
2022/07/23 10:28:57;;;;;;;3.33;1.70;;;;;;;;;;5016034;28;20143;-77
2022/07/23 10:31:32;;;;;;;3.83;1.88;;;;;;;;;;4995959;28;20042;-78
2022/07/23 10:34:17;;;;;;;1.70;1.60;;;;;;;;;;5002619;28;20520;-79
2022/07/23 10:36:48;;;;;;;2.08;1.50;;;;;;;;;;5015261;28;20505;-79
2022/07/23 10:39:43;;;;;;;4.07;1.85;;;;;;;;;;5010551;28;20074;-78
2022/07/23 10:42:09;;;;;;;3.75;1.80;;;;;;;;;;4974564;28;20410;-78
2022/07/23 10:44:43;;;;;;;3.15;1.70;;;;;;;;;;5008846;28;20057;-78
2022/07/23 10:49:48;;;;;;;4.45;1.70;;;;;;;;;;4997728;28;20049;-78
2022/07/23 10:52:14;;;;;;;6.63;1.80;;;;;;;;;;5015119;28;20057;-78
2022/07/23 10:54:44;;;;;;;2.60;1.80;;;;;;;;;;5013236;28;20391;-83
2022/07/23 10:57:14;;;;;;;4.00;1.80;;;;;;;;;;5011274;28;20474;-75
2022/07/23 10:59:58;;;;;;;2.42;2.00;;;;;;;;;;5013926;28;20042;-77
2022/07/23 11:02:25;;;;;;;3.47;1.70;;;;;;;;;;5015778;28;20071;-77
2022/07/23 11:04:52;;;;;;;2.45;1.85;;;;;;;;;;5015351;28;20046;-78
2022/07/23 11:07:18;;;;;;;4.60;1.77;;;;;;;;;;5014860;28;20468;-79
2022/07/23 11:09:47;;;;;;;2.95;1.77;;;;;;;;;;5015333;28;20050;-78
2022/07/23 11:12:13;;;;;;;3.45;1.73;;;;;;;;;;5015097;28;20045;-84
2022/07/23 11:15:03;;;;;;;3.67;1.85;;;;;;;;;;4999883;28;20054;-78
2022/07/23 11:17:30;;;;;;;2.75;1.80;;;;;;;;;;5004839;28;20581;-78
2022/07/23 11:20:17;;;;;;;3.00;1.90;;;;;;;;;;5015358;28;20080;-78
2022/07/23 11:22:43;;;;;;;3.60;1.83;;;;;;;;;;5014824;28;20046;-79
2022/07/23 11:25:09;;;;;;;3.47;1.88;;;;;;;;;;5014884;28;20045;-79
2022/07/23 11:27:43;;;;;;;1.83;1.60;;;;;;;;;;5014528;28;20042;-79
2022/07/23 11:30:09;;;;;;;2.80;1.80;;;;;;;;;;5012205;28;20073;-78
2022/07/23 11:32:38;;;;;;;4.53;2.00;;;;;;;;;;5013828;28;20100;-78
2022/07/23 11:35:19;;;;;;;3.90;1.90;;;;;;;;;;5012621;28;20050;-78
2022/07/23 11:37:45;;;;;;;4.05;2.20;;;;;;;;;;5013993;28;20038;-78
2022/07/23 11:40:16;;;;;;;3.50;2.00;;;;;;;;;;5013813;28;20121;-79
2022/07/23 11:42:55;;;;;;;3.05;1.65;;;;;;;;;;5013039;28;20111;-79
2022/07/23 11:45:22;;;;;;;2.92;1.75;;;;;;;;;;5014019;28;20046;-79
2022/07/23 11:47:48;;;;;;;2.53;1.70;;;;;;;;;;5013287;28;20100;-77
2022/07/23 11:50:17;;;;;;;3.25;1.70;;;;;;;;;;5014001;28;20042;-77
2022/07/23 11:52:43;;;;;;;9.82;2.45;;;;;;;;;;5013032;28;20049;-77
2022/07/23 11:55:10;;;;;;;3.08;1.70;;;;;;;;;;5013739;28;20064;-78
2022/07/23 11:57:37;;;;;;;2.88;1.73;;;;;;;;;;5012672;28;20129;-78
2022/07/23 12:00:10;;;;;;;4.50;1.90;;;;;;;;;;5013397;28;20045;-77
2022/07/23 12:02:39;;;;;;;;;;;;;;;;;;5013003;28;20038;-78
2022/07/23 12:05:06;;;;;;;2.50;1.70;;;;;;;;;;5013081;28;19928;-78
2022/07/23 12:07:32;;;;;;;2.42;1.50;;;;;;;;;;4995995;28;20050;-78
2022/07/23 12:10:04;;;;;;;3.15;1.85;;;;;;;;;;4996067;28;20046;-78
2022/07/23 12:12:37;;;;;;;2.72;1.70;;;;;;;;;;4996051;28;20124;-77
2022/07/23 12:15:03;;;;;;;8.63;1.90;;;;;;;;;;5013016;28;20042;-78
2022/07/23 12:17:31;;;;;;;3.30;1.90;;;;;;;;;;5012398;28;20489;-78
2022/07/23 12:19:58;;;;;;;7.28;1.70;;;;;;;;;;4995702;28;20048;-78
2022/07/23 12:22:25;;;;;;;2.75;1.80;;;;;;;;;;5013242;28;20123;-78
2022/07/23 12:24:55;;;;;;;3.85;2.00;;;;;;;;;;5013015;28;20163;-78
2022/07/23 12:27:21;;;;;;;2.65;1.70;;;;;;;;;;4979374;28;20046;-78
2022/07/23 12:29:48;;;;;;;3.70;1.80;;;;;;;;;;5012427;28;20050;-78
2022/07/23 12:32:21;;;;;;;1.80;1.65;;;;;;;;;;5012837;28;20034;-78
2022/07/23 12:34:48;;;;;;;2.13;1.80;;;;;;;;;;4976051;28;20061;-78
2022/07/23 12:37:34;;;;;;;2.80;1.67;;;;;;;;;;4993315;28;20613;-78
2022/07/23 12:40:19;;;;;;;20.40;2.83;;;;;;;;;;4993579;28;20120;-78
2022/07/23 12:42:46;;;;;;;3.60;1.83;;;;;;;;;;4993500;28;20080;-78
2022/07/23 12:45:13;;;;;;;9.70;2.40;;;;;;;;;;4999304;28;20038;-77
2022/07/23 12:48:11;;;;;;;3.78;1.83;;;;;;;;;;5011957;28;20590;-78
2022/07/23 12:50:39;;;;;;;9.75;2.47;;;;;;;;;;4914356;29;20052;-78
2022/07/23 12:53:07;;;;;;;5.65;1.80;;;;;;;;;;4914465;29;20060;-78
2022/07/23 12:55:34;;;;;;;6.85;2.17;;;;;;;;;;4914411;29;20079;-78
2022/07/23 12:58:05;;;;;;;2.17;1.70;;;;;;;;;;4914167;29;20386;-77
2022/07/23 13:00:32;;;;;;;2.47;1.73;;;;;;;;;;4914039;29;20056;-78
2022/07/23 13:02:58;;;;;;;2.45;1.75;;;;;;;;;;4882374;29;20065;-77
2022/07/23 13:05:24;;;;;;;2.53;1.70;;;;;;;;;;4917923;29;20106;-77
2022/07/23 13:07:50;;;;;;;1.83;1.55;;;;;;;;;;4902068;29;20056;-78
2022/07/23 13:10:16;;;;;;;2.85;1.83;;;;;;;;;;4918141;29;20048;-78
2022/07/23 13:12:42;;;;;;;2.72;1.80;;;;;;;;;;4917899;29;20059;-78
2022/07/23 13:15:08;;;;;;;4.03;2.00;;;;;;;;;;4917676;29;20061;-77
2022/07/23 13:17:35;;;;;;;4.22;2.00;;;;;;;;;;4917474;29;20051;-76
2022/07/23 13:20:01;;;;;;;3.20;1.80;;;;;;;;;;4917925;29;20066;-77
2022/07/23 13:22:27;;;;;;;2.70;1.50;;;;;;;;;;4918107;29;20044;-79
2022/07/23 13:24:53;;;;;;;2.97;1.70;;;;;;;;;;4917784;29;20052;-79
2022/07/23 13:27:19;;;;;;;2.58;1.65;;;;;;;;;;5013314;28;20061;-77
2022/07/23 13:29:45;;;;;;;2.95;1.83;;;;;;;;;;5015744;28;20082;-78
2022/07/23 13:32:12;;;;;;;3.30;1.80;;;;;;;;;;5015484;28;20496;-77
2022/07/23 13:34:38;;;;;;;3.72;1.80;;;;;;;;;;5016564;28;20042;-78
2022/07/23 13:37:04;;;;;;;3.63;1.90;;;;;;;;;;5016305;28;20049;-77
2022/07/23 13:39:30;;;;;;;2.80;1.70;;;;;;;;;;5016196;28;20046;-78
2022/07/23 13:41:57;;;;;;;3.05;1.80;;;;;;;;;;5015798;28;20057;-78
2022/07/23 13:44:23;;;;;;;4.32;1.90;;;;;;;;;;5013607;28;20493;-78
2022/07/23 13:46:49;;;;;;;3.80;1.73;;;;;;;;;;4997271;28;20054;-78
2022/07/23 13:49:15;;;;;;;3.13;1.70;;;;;;;;;;5015805;28;20050;-78
2022/07/23 13:51:41;;;;;;;3.25;2.13;;;;;;;;;;5015990;28;20085;-78
2022/07/23 13:54:07;;;;;;;1.77;1.67;;;;;;;;;;4998226;28;20084;-79
2022/07/23 13:56:33;;;;;;;3.15;1.90;;;;;;;;;;5015693;28;20078;-78
2022/07/23 13:58:59;;;;;;;3.30;1.80;;;;;;;;;;5013155;28;20148;-78
2022/07/23 14:01:25;;;;;;;4.22;1.85;;;;;;;;;;5001260;28;20507;-77
2022/07/23 14:03:51;;;;;;;3.63;1.73;;;;;;;;;;5015899;28;20133;-80
2022/07/23 14:06:18;;;;;;;3.10;1.80;;;;;;;;;;5015666;28;20065;-78
2022/07/23 14:08:44;;;;;;;2.90;1.85;;;;;;;;;;4998144;28;20068;-77
2022/07/23 14:11:10;;;;;;;4.10;2.17;;;;;;;;;;4998193;28;20058;-78
2022/07/23 14:13:36;;;;;;;3.90;1.90;;;;;;;;;;5015268;28;20053;-77
2022/07/23 14:16:02;;;;;;;5.22;2.10;;;;;;;;;;5014182;28;20038;-77
2022/07/23 14:18:28;;;;;;;3.00;1.88;;;;;;;;;;5015337;28;20459;-78
2022/07/23 14:20:54;;;;;;;3.45;2.00;;;;;;;;;;5015390;28;20481;-77
2022/07/23 14:23:20;;;;;;;2.10;1.70;;;;;;;;;;5015326;28;20037;-78
2022/07/23 14:25:46;;;;;;;3.42;1.85;;;;;;;;;;5015386;28;20096;-78
2022/07/23 14:28:12;;;;;;;4.88;2.10;;;;;;;;;;5014649;28;20046;-78
2022/07/23 14:30:39;;;;;;;2.30;1.67;;;;;;;;;;5014559;28;20052;-78
2022/07/23 14:33:05;;;;;;;2.20;1.70;;;;;;;;;;5015453;28;20041;-79
2022/07/23 14:35:31;;;;;;;2.75;1.95;;;;;;;;;;5015111;28;20462;-78
2022/07/23 14:37:57;;;;;;;4.32;2.22;;;;;;;;;;4997707;28;20050;-77
2022/07/23 14:40:23;;;;;;;3.20;2.10;;;;;;;;;;5015044;28;20462;-78
2022/07/23 14:42:50;;;;;;;3.92;2.00;;;;;;;;;;5014238;28;20042;-78
2022/07/23 14:45:16;;;;;;;3.60;1.83;;;;;;;;;;4997464;28;20042;-78
2022/07/23 14:47:42;;;;;;;5.18;2.03;;;;;;;;;;5014716;28;20058;-78
2022/07/23 14:50:08;;;;;;;5.72;2.08;;;;;;;;;;5015025;28;20060;-78